Time;durP1;ratioP1;P1;durP2;ratioP2;P2;SDS_P1;SDS_P2;PMS_P1;PMS_P2;Temp;Humidity;BMP_temperature;BMP_pressure;BME280_temperature;BME280_humidity;BME280_pressure;Samples;Min_cycle;Max_cycle;Signal;HPM_P1;HPM_P2
2022/04/26 03:37:55;;;;;;;22.52;11.40;;;7.90;99.90;;;;;;5032592;28;20099;-48
2022/04/26 03:40:20;;;;;;;25.95;13.30;;;8.00;99.90;;;;;;5038246;28;20052;-48
2022/04/26 03:42:46;;;;;;;26.38;13.40;;;7.90;99.90;;;;;;5059906;28;20398;-48
2022/04/26 03:45:11;;;;;;;22.77;12.45;;;7.90;99.90;;;;;;5044557;28;20064;-47
2022/04/26 03:47:37;;;;;;;21.33;12.95;;;7.90;99.90;;;;;;5052324;28;20508;-48
2022/04/26 03:50:03;;;;;;;24.92;12.02;;;7.90;99.90;;;;;;5035024;28;20124;-48
2022/04/26 03:52:29;;;;;;;22.33;11.43;;;7.90;99.90;;;;;;5051975;28;20514;-48
2022/04/26 03:54:54;;;;;;;26.70;12.50;;;7.90;99.90;;;;;;5052223;28;20044;-48
2022/04/26 03:57:20;;;;;;;27.63;12.80;;;7.90;99.90;;;;;;5051811;28;20045;-48
2022/04/26 03:59:45;;;;;;;23.50;13.18;;;7.90;99.90;;;;;;5052573;28;20032;-47
2022/04/26 04:02:11;;;;;;;24.63;11.88;;;7.80;99.90;;;;;;5055292;28;20067;-48
2022/04/26 04:04:36;;;;;;;24.73;10.82;;;7.70;99.90;;;;;;5049779;28;20164;-47
2022/04/26 04:07:03;;;;;;;20.35;11.45;;;7.80;99.90;;;;;;5050199;28;20029;-50
2022/04/26 04:09:29;;;;;;;20.48;10.65;;;7.70;99.90;;;;;;5051942;28;20040;-48
2022/04/26 04:11:54;;;;;;;20.48;10.63;;;7.80;99.90;;;;;;5057927;28;20052;-49
2022/04/26 04:14:20;;;;;;;20.95;10.95;;;7.80;99.90;;;;;;5048168;28;20043;-47
2022/04/26 04:16:45;;;;;;;18.90;10.70;;;7.70;99.90;;;;;;5032078;28;20088;-47
2022/04/26 04:19:24;;;;;;;23.98;11.75;;;7.60;99.90;;;;;;5046212;28;20045;-47
2022/04/26 04:21:51;;;;;;;23.33;11.75;;;7.60;99.90;;;;;;5053560;28;20036;-47
2022/04/26 04:24:17;;;;;;;25.33;10.65;;;7.60;99.90;;;;;;5040084;28;20450;-49
2022/04/26 04:26:43;;;;;;;24.10;11.70;;;7.60;99.90;;;;;;5031946;28;20040;-49
2022/04/26 04:29:09;;;;;;;19.00;11.70;;;7.60;99.90;;;;;;5047494;28;20498;-46
2022/04/26 04:31:35;;;;;;;25.98;12.18;;;7.60;99.90;;;;;;5048607;28;20071;-46
2022/04/26 04:34:02;;;;;;;26.02;12.40;;;7.60;99.90;;;;;;5059505;28;20040;-48
2022/04/26 04:36:28;;;;;;;21.58;10.82;;;7.60;99.90;;;;;;5043352;28;20045;-47
2022/04/26 04:38:55;;;;;;;24.88;11.13;;;7.60;99.90;;;;;;5051278;28;20099;-48
2022/04/26 04:41:21;;;;;;;29.67;11.30;;;7.60;99.90;;;;;;5051227;28;20037;-47
2022/04/26 04:43:46;;;;;;;22.75;11.82;;;7.60;99.90;;;;;;5017465;28;20060;-48
2022/04/26 04:46:12;;;;;;;21.48;11.15;;;7.60;99.90;;;;;;5032426;28;20483;-48
2022/04/26 04:48:37;;;;;;;23.30;11.70;;;7.50;99.90;;;;;;5033234;28;20490;-47
2022/04/26 04:51:03;;;;;;;29.00;11.93;;;7.60;99.90;;;;;;5050007;28;20064;-47
2022/04/26 04:53:28;;;;;;;26.02;11.48;;;7.70;99.90;;;;;;5048592;28;20049;-47
2022/04/26 04:55:54;;;;;;;29.23;11.80;;;7.70;99.90;;;;;;5053478;28;20075;-47
2022/04/26 04:58:20;;;;;;;24.77;11.82;;;7.70;99.90;;;;;;5039148;28;20407;-47
2022/04/26 05:00:45;;;;;;;16.98;10.13;;;7.70;99.90;;;;;;5046491;28;20052;-48
2022/04/26 05:03:11;;;;;;;26.05;11.57;;;7.70;99.90;;;;;;5041145;28;20038;-47
2022/04/26 05:05:36;;;;;;;18.27;10.15;;;7.70;99.90;;;;;;5038786;28;20029;-48
2022/04/26 05:08:02;;;;;;;26.63;11.60;;;7.70;99.90;;;;;;5034368;28;20025;-47
2022/04/26 05:10:30;;;;;;;28.67;12.07;;;7.70;99.90;;;;;;5050049;28;20047;-48
2022/04/26 05:12:55;;;;;;;21.40;10.45;;;7.60;99.90;;;;;;5044526;28;20049;-47
2022/04/26 05:15:21;;;;;;;21.02;10.85;;;7.60;99.90;;;;;;5050895;28;20056;-48
2022/04/26 05:17:46;;;;;;;22.00;10.18;;;7.70;99.90;;;;;;5030914;28;20428;-49
2022/04/26 05:20:12;;;;;;;23.42;11.10;;;7.80;99.90;;;;;;5048955;28;20036;-48
2022/04/26 05:25:24;;;;;;;18.27;9.52;;;7.80;99.90;;;;;;5045281;28;20072;-47
2022/04/26 05:27:50;;;;;;;23.00;9.70;;;7.80;99.90;;;;;;5050255;28;20061;-51
2022/04/26 05:30:15;;;;;;;22.23;9.27;;;7.80;99.90;;;;;;5048296;28;20099;-51
2022/04/26 05:32:41;;;;;;;18.80;8.55;;;7.80;99.90;;;;;;5049786;28;20039;-51
2022/04/26 05:35:07;;;;;;;22.85;8.68;;;7.90;99.90;;;;;;5050213;28;20047;-48
2022/04/26 05:37:32;;;;;;;31.52;10.13;;;7.90;99.90;;;;;;5032076;28;20095;-48
2022/04/26 05:40:02;;;;;;;23.00;9.13;;;7.90;99.90;;;;;;5052775;28;20032;-50
2022/04/26 05:42:31;;;;;;;17.92;8.70;;;7.80;99.90;;;;;;5054802;28;20048;-49
2022/04/26 05:44:57;;;;;;;24.35;8.82;;;7.80;99.90;;;;;;5054626;28;20087;-49
2022/04/26 05:47:23;;;;;;;21.27;8.10;;;7.90;99.90;;;;;;5055548;28;20033;-51
2022/04/26 05:49:48;;;;;;;23.92;8.05;;;7.90;99.90;;;;;;5044613;28;20130;-50
2022/04/26 05:52:15;;;;;;;19.65;7.88;;;7.90;99.90;;;;;;5025476;28;20045;-49
2022/04/26 05:54:40;;;;;;;20.63;8.02;;;8.00;99.90;;;;;;5045048;28;20044;-47
2022/04/26 05:57:06;;;;;;;19.52;7.95;;;8.00;99.90;;;;;;5047063;28;20040;-49
2022/04/26 05:59:32;;;;;;;19.75;7.80;;;7.90;99.90;;;;;;5054493;28;20043;-48
2022/04/26 06:01:57;;;;;;;16.88;6.85;;;8.00;99.90;;;;;;5053523;28;20063;-48
2022/04/26 06:04:24;;;;;;;19.67;7.80;;;8.00;99.90;;;;;;5053346;28;20045;-50
2022/04/26 06:06:51;;;;;;;16.33;7.68;;;8.00;99.90;;;;;;5053527;28;20033;-50
2022/04/26 06:09:16;;;;;;;18.60;7.70;;;8.00;99.90;;;;;;5043574;28;20123;-48
2022/04/26 06:11:42;;;;;;;17.27;7.43;;;8.00;99.90;;;;;;5034070;28;20503;-47
2022/04/26 06:14:08;;;;;;;14.65;6.47;;;8.00;99.90;;;;;;5040939;28;20037;-48
2022/04/26 06:16:34;;;;;;;12.55;6.32;;;8.10;99.90;;;;;;5049159;28;20182;-50
2022/04/26 06:18:59;;;;;;;19.50;6.28;;;8.30;99.90;;;;;;5051298;28;20051;-47
2022/04/26 06:21:25;;;;;;;20.05;6.10;;;8.30;99.90;;;;;;5050878;28;20037;-47
2022/04/26 06:23:50;;;;;;;14.90;6.20;;;8.30;99.90;;;;;;5053693;28;20475;-50
2022/04/26 06:26:16;;;;;;;17.60;6.28;;;8.20;99.90;;;;;;5028623;28;20037;-47
2022/04/26 06:28:42;;;;;;;14.18;5.72;;;8.20;99.90;;;;;;5034599;28;20055;-50
2022/04/26 06:31:08;;;;;;;15.18;5.82;;;8.20;99.90;;;;;;5031444;28;20083;-47
2022/04/26 06:33:34;;;;;;;14.38;5.53;;;8.20;99.90;;;;;;5050098;28;20049;-48
2022/04/26 06:36:00;;;;;;;14.77;6.55;;;8.30;99.90;;;;;;5052045;28;20439;-51
2022/04/26 06:38:26;;;;;;;16.92;6.70;;;8.30;99.90;;;;;;5051869;28;20049;-50
2022/04/26 06:40:52;;;;;;;16.85;6.55;;;8.30;99.90;;;;;;5050767;28;20521;-50
2022/04/26 06:43:18;;;;;;;13.13;6.10;;;8.30;99.90;;;;;;5049503;28;20044;-49
2022/04/26 06:45:46;;;;;;;17.25;6.10;;;8.30;99.90;;;;;;5049730;28;20041;-50
2022/04/26 06:48:12;;;;;;;15.07;6.47;;;8.40;99.90;;;;;;5047541;28;20042;-48
2022/04/26 06:50:38;;;;;;;13.20;5.72;;;8.60;99.90;;;;;;5052691;28;20037;-50
2022/04/26 06:53:04;;;;;;;15.32;5.85;;;8.50;99.90;;;;;;5052117;28;20120;-47
2022/04/26 06:55:30;;;;;;;15.45;6.50;;;8.70;99.90;;;;;;5047681;28;20094;-51
2022/04/26 06:57:55;;;;;;;13.07;4.88;;;8.70;99.90;;;;;;5047139;28;20491;-49
2022/04/26 07:00:21;;;;;;;13.48;4.80;;;8.80;99.90;;;;;;5049266;28;20397;-49
2022/04/26 07:02:47;;;;;;;15.07;5.35;;;8.90;99.90;;;;;;5045708;28;20483;-48
2022/04/26 07:05:14;;;;;;;18.50;5.70;;;8.90;99.90;;;;;;5049718;28;20037;-49
2022/04/26 07:07:40;;;;;;;12.30;5.18;;;8.90;99.90;;;;;;5049923;28;20483;-50
2022/04/26 07:10:07;;;;;;;12.00;5.22;;;9.00;99.90;;;;;;5049847;28;20045;-48
2022/04/26 07:12:32;;;;;;;11.40;4.75;;;9.00;99.90;;;;;;5047278;28;20116;-50
2022/04/26 07:14:58;;;;;;;14.68;4.93;;;9.10;99.90;;;;;;5046983;28;20120;-47
2022/04/26 07:17:24;;;;;;;13.75;5.68;;;9.10;99.90;;;;;;5034757;28;20045;-47
2022/04/26 07:19:50;;;;;;;10.10;4.43;;;9.10;99.90;;;;;;5044077;28;20029;-49
2022/04/26 07:22:16;;;;;;;16.00;5.55;;;9.20;99.90;;;;;;5052571;28;20563;-50
2022/04/26 07:24:42;;;;;;;17.15;5.80;;;9.20;99.90;;;;;;5033205;28;20115;-48
2022/04/26 07:27:07;;;;;;;9.98;5.43;;;9.10;99.90;;;;;;5050446;28;20124;-49
2022/04/26 07:29:33;;;;;;;10.55;5.55;;;9.20;99.90;;;;;;5047042;28;20549;-47
2022/04/26 07:31:59;;;;;;;11.02;5.05;;;9.40;99.90;;;;;;5041895;28;20468;-50
2022/04/26 07:34:25;;;;;;;9.57;5.10;;;9.30;99.90;;;;;;5051456;28;20083;-50
2022/04/26 07:37:01;;;;;;;10.98;5.22;;;9.20;99.90;;;;;;5050243;28;20041;-50
2022/04/26 07:39:27;;;;;;;9.90;5.55;;;9.30;99.90;;;;;;5049521;28;20036;-52
2022/04/26 07:41:54;;;;;;;14.35;4.93;;;9.30;99.90;;;;;;5050881;28;20131;-51
2022/04/26 07:44:20;;;;;;;9.35;4.70;;;9.30;99.90;;;;;;5049933;28;20111;-51
2022/04/26 07:46:47;;;;;;;18.27;6.05;;;9.40;99.90;;;;;;5053395;28;20577;-48
2022/04/26 07:49:14;;;;;;;9.25;4.68;;;9.40;99.90;;;;;;5049781;28;20048;-51
2022/04/26 07:51:40;;;;;;;11.23;4.60;;;9.40;99.90;;;;;;5033924;28;20045;-51
2022/04/26 07:54:06;;;;;;;10.15;4.97;;;9.30;99.90;;;;;;5030723;28;20033;-49
2022/04/26 07:56:32;;;;;;;12.15;4.50;;;9.40;99.90;;;;;;5050427;28;20041;-47
2022/04/26 07:59:00;;;;;;;8.77;3.63;;;9.40;99.90;;;;;;5049595;28;20071;-51
2022/04/26 08:01:26;;;;;;;8.80;3.92;;;9.50;99.90;;;;;;5051184;28;20043;-50
2022/04/26 08:03:52;;;;;;;17.10;5.20;;;9.60;99.90;;;;;;5017815;28;20040;-49
2022/04/26 08:06:18;;;;;;;7.47;4.00;;;9.60;99.90;;;;;;5034610;28;20338;-52
2022/04/26 08:08:44;;;;;;;10.93;4.72;;;9.60;99.90;;;;;;5051347;28;20119;-51
2022/04/26 08:11:12;;;;;;;10.23;4.47;;;9.60;99.90;;;;;;5051317;28;20040;-53
2022/04/26 08:13:40;;;;;;;12.32;3.70;;;9.80;99.90;;;;;;5046905;28;20041;-53
2022/04/26 08:16:06;;;;;;;8.50;3.70;;;10.00;99.90;;;;;;5052180;28;20409;-50
2022/04/26 08:18:32;;;;;;;14.00;4.35;;;10.20;99.90;;;;;;5052058;28;20051;-53
2022/04/26 08:20:58;;;;;;;9.40;4.30;;;10.30;99.90;;;;;;5051941;28;20557;-53
2022/04/26 08:23:23;;;;;;;8.82;3.78;;;10.50;99.90;;;;;;5027738;28;20132;-48
2022/04/26 08:28:33;;;;;;;11.13;4.10;;;10.80;99.90;;;;;;5045754;28;20044;-48
2022/04/26 08:31:00;;;;;;;12.18;4.15;;;10.90;99.90;;;;;;5052147;28;20048;-50
2022/04/26 08:33:30;;;;;;;7.30;3.95;;;10.90;99.90;;;;;;5046530;28;20041;-48
2022/04/26 08:35:56;;;;;;;10.07;4.05;;;11.00;99.90;;;;;;5043534;28;20128;-49
2022/04/26 08:38:22;;;;;;;10.90;3.70;;;11.10;99.90;;;;;;5051414;28;20123;-51
2022/04/26 08:40:48;;;;;;;10.13;4.10;;;11.10;99.90;;;;;;5053683;28;20048;-52
2022/04/26 08:43:14;;;;;;;11.35;4.07;;;11.30;99.90;;;;;;5027508;28;20047;-53
2022/04/26 08:45:40;;;;;;;12.50;3.80;;;11.20;99.90;;;;;;5043774;28;20029;-51
2022/04/26 08:50:59;;;;;;;13.27;4.25;;;10.80;99.90;;;;;;5100715;28;20050;-51
2022/04/26 08:53:26;;;;;;;8.40;3.97;;;10.70;99.90;;;;;;5099629;28;20040;-48
2022/04/26 08:55:57;;;;;;;10.95;3.45;;;10.70;99.90;;;;;;5104867;28;20088;-52
2022/04/26 08:58:27;;;;;;;12.60;3.97;;;10.70;99.90;;;;;;5098930;28;20031;-48
2022/04/26 09:01:18;;;;;;;11.95;4.20;;;10.70;99.90;;;;;;5092265;28;20052;-49
2022/04/26 09:03:55;;;;;;;7.65;3.80;;;10.80;99.90;;;;;;5098637;28;20401;-48
2022/04/26 09:06:23;;;;;;;10.90;4.00;;;10.80;99.90;;;;;;5098461;28;20509;-50
2022/04/26 09:08:48;;;;;;;12.27;3.63;;;10.80;99.90;;;;;;5104982;28;20035;-48
2022/04/26 09:11:27;;;;;;;11.45;3.67;;;10.80;99.90;;;;;;5108455;28;20036;-50
2022/04/26 09:13:54;;;;;;;11.95;3.75;;;10.70;99.90;;;;;;5113587;28;20459;-48
2022/04/26 09:16:22;;;;;;;11.32;3.55;;;10.80;99.90;;;;;;5114569;28;20055;-49
2022/04/26 09:18:52;;;;;;;8.43;3.85;;;10.70;99.90;;;;;;5106401;28;20036;-47
2022/04/26 09:21:18;;;;;;;9.10;4.03;;;10.80;99.90;;;;;;5096381;28;20043;-48
2022/04/26 09:23:46;;;;;;;12.02;3.70;;;10.90;99.90;;;;;;5097251;28;20039;-48
2022/04/26 09:26:14;;;;;;;10.57;3.63;;;10.90;99.90;;;;;;5106164;28;20501;-49
2022/04/26 09:28:48;;;;;;;13.30;3.95;;;10.80;99.90;;;;;;5098854;28;20031;-48
2022/04/26 09:31:22;;;;;;;9.82;3.65;;;10.70;99.90;;;;;;5103586;28;20067;-50
2022/04/26 09:33:51;;;;;;;8.15;3.90;;;10.80;99.90;;;;;;5108834;28;20070;-48
2022/04/26 09:36:19;;;;;;;10.73;4.00;;;10.90;99.90;;;;;;5096631;28;20067;-49
2022/04/26 09:38:58;;;;;;;8.30;3.70;;;10.90;99.20;;;;;;5098296;28;20060;-48
2022/04/26 09:41:26;;;;;;;8.70;3.75;;;10.90;99.00;;;;;;5094607;28;20040;-49
2022/04/26 09:44:10;;;;;;;11.05;3.45;;;11.10;97.40;;;;;;5101713;28;20096;-50
2022/04/26 09:46:53;;;;;;;9.00;3.58;;;11.00;98.00;;;;;;5095973;28;20040;-52
2022/04/26 09:49:21;;;;;;;;;;;11.10;98.80;;;;;;5097038;28;20036;-50
2022/04/26 09:51:47;;;;;;;7.72;3.47;;;11.10;99.20;;;;;;5095657;28;20301;-48
2022/04/26 09:54:13;;;;;;;9.05;4.05;;;11.10;98.00;;;;;;5106484;28;20634;-49
2022/04/26 09:56:43;;;;;;;7.28;3.55;;;11.20;98.30;;;;;;5098413;28;20036;-49
2022/04/26 09:59:12;;;;;;;9.25;3.72;;;11.30;97.30;;;;;;5099193;28;20031;-48
2022/04/26 10:01:43;;;;;;;7.30;2.78;;;11.30;96.50;;;;;;5093908;28;20048;-49
2022/04/26 10:04:15;;;;;;;9.18;3.70;;;11.50;94.70;;;;;;5106520;28;20043;-50
2022/04/26 10:06:43;;;;;;;7.00;3.15;;;11.60;95.10;;;;;;5101840;28;20389;-48
2022/04/26 10:09:10;;;;;;;9.25;3.97;;;11.70;95.10;;;;;;5104097;28;20046;-49
2022/04/26 10:11:36;;;;;;;10.48;3.22;;;11.80;94.90;;;;;;5096361;28;20093;-49
2022/04/26 10:14:05;;;;;;;6.45;3.63;;;11.90;93.90;;;;;;5102108;28;20039;-49
2022/04/26 10:16:31;;;;;;;6.07;3.28;;;12.00;93.40;;;;;;5098641;28;20039;-48
2022/04/26 10:19:08;;;;;;;8.40;3.83;;;12.10;91.50;;;;;;5104249;28;20043;-49
2022/04/26 10:21:39;;;;;;;8.27;3.55;;;12.10;92.70;;;;;;5095735;28;20389;-50
2022/04/26 10:24:12;;;;;;;8.18;3.42;;;12.20;90.60;;;;;;5111001;28;20397;-49
2022/04/26 10:26:39;;;;;;;6.40;3.20;;;12.30;88.80;;;;;;5114367;28;20092;-48
2022/04/26 10:29:07;;;;;;;6.53;2.75;;;12.40;88.50;;;;;;5097968;28;20035;-50
2022/04/26 10:31:49;;;;;;;6.65;3.00;;;12.50;86.70;;;;;;5105141;28;20130;-48
2022/04/26 10:34:18;;;;;;;8.02;3.35;;;12.50;83.70;;;;;;5103142;28;20082;-48
2022/04/26 10:36:47;;;;;;;6.10;2.83;;;12.40;84.90;;;;;;5107904;28;20092;-49
2022/04/26 10:39:13;;;;;;;6.60;3.40;;;12.30;85.80;;;;;;5097116;28;20036;-49
2022/04/26 10:41:43;;;;;;;8.55;3.70;;;12.20;89.10;;;;;;5096530;28;20107;-48
2022/04/26 10:44:26;;;;;;;12.18;3.42;;;12.10;85.40;;;;;;5095879;28;20032;-49
2022/04/26 10:47:01;;;;;;;10.07;3.70;;;12.10;88.90;;;;;;5093788;28;20370;-49
2022/04/26 10:49:32;;;;;;;6.28;2.53;;;12.20;88.70;;;;;;5098700;28;20124;-48
2022/04/26 10:52:19;;;;;;;6.90;3.43;;;12.40;85.80;;;;;;5097156;28;20048;-49
2022/04/26 10:54:58;;;;;;;7.18;3.75;;;12.30;87.30;;;;;;5100941;28;20043;-48
2022/04/26 10:57:26;;;;;;;7.95;3.03;;;12.30;88.40;;;;;;5099995;28;20039;-49
2022/04/26 10:59:57;;;;;;;11.23;3.00;;;12.40;85.70;;;;;;5101079;28;20119;-48
2022/04/26 11:02:25;;;;;;;6.00;2.80;;;12.50;84.70;;;;;;5096111;28;20044;-48
2022/04/26 11:05:02;;;;;;;8.40;2.88;;;12.80;85.10;;;;;;5105690;28;20032;-47
2022/04/26 11:07:28;;;;;;;9.50;2.80;;;12.90;82.70;;;;;;5097414;28;20027;-47
2022/04/26 11:09:56;;;;;;;8.85;3.20;;;13.00;85.20;;;;;;5094640;28;20036;-50
2022/04/26 11:12:24;;;;;;;9.70;2.70;;;13.00;84.90;;;;;;5096042;28;20055;-49
2022/04/26 11:14:52;;;;;;;7.53;3.05;;;13.10;81.30;;;;;;5095567;28;20035;-47
2022/04/26 11:17:19;;;;;;;5.85;2.97;;;13.30;80.20;;;;;;5096667;28;20150;-48
2022/04/26 11:19:55;;;;;;;7.10;2.80;;;13.40;77.20;;;;;;5098443;28;20036;-49
2022/04/26 11:22:23;;;;;;;7.53;3.13;;;13.40;73.70;;;;;;5094494;28;20086;-48
2022/04/26 11:30:42;;;;;;;7.75;2.90;;;13.50;74.30;;;;;;5095852;28;20040;-50
2022/04/26 11:33:11;;;;;;;6.78;3.03;;;13.30;75.80;;;;;;5104227;28;20040;-49
2022/04/26 11:35:38;;;;;;;6.03;2.70;;;13.20;77.10;;;;;;5103180;28;20031;-52
2022/04/26 11:38:13;;;;;;;8.60;3.03;;;13.10;77.00;;;;;;5101056;28;20386;-49
2022/04/26 11:40:48;;;;;;;7.75;2.80;;;13.20;77.60;;;;;;5095899;28;20043;-49
2022/04/26 11:43:33;;;;;;;5.53;2.75;;;13.40;76.40;;;;;;5097007;28;20027;-52
2022/04/26 11:46:00;;;;;;;5.32;2.47;;;13.60;74.10;;;;;;5092604;28;20091;-48
2022/04/26 11:48:29;;;;;;;7.28;2.60;;;13.70;72.80;;;;;;5098267;28;20082;-51
2022/04/26 11:50:56;;;;;;;5.38;2.50;;;13.50;71.80;;;;;;5092316;28;20041;-48
2022/04/26 11:53:25;;;;;;;6.38;2.50;;;13.50;68.60;;;;;;5093396;28;20032;-49
2022/04/26 11:56:00;;;;;;;7.07;3.05;;;13.50;71.10;;;;;;5108311;28;20047;-48
2022/04/26 11:58:40;;;;;;;5.25;2.70;;;13.70;71.30;;;;;;5087475;28;20032;-47
2022/04/26 12:01:15;;;;;;;5.80;2.70;;;13.70;67.50;;;;;;5091850;28;20044;-50
2022/04/26 12:03:49;;;;;;;5.07;2.58;;;13.70;68.30;;;;;;5085538;28;20044;-50
2022/04/26 12:06:17;;;;;;;8.63;2.92;;;13.70;67.70;;;;;;5093244;28;20039;-53
2022/04/26 12:08:45;;;;;;;7.40;2.60;;;13.80;65.60;;;;;;5094351;28;20032;-51
2022/04/26 12:11:20;;;;;;;7.57;3.05;;;13.90;65.30;;;;;;5090390;28;20383;-48
2022/04/26 12:13:59;;;;;;;5.05;2.88;;;14.00;68.80;;;;;;5098757;28;20040;-50
2022/04/26 12:16:25;;;;;;;6.60;2.70;;;14.20;63.40;;;;;;5096937;28;20578;-49
2022/04/26 12:18:54;;;;;;;7.85;2.83;;;14.10;60.80;;;;;;5097885;28;20104;-52
2022/04/26 12:21:21;;;;;;;7.75;2.75;;;14.00;61.70;;;;;;5091324;28;20036;-51
2022/04/26 12:23:47;;;;;;;4.78;2.67;;;13.90;62.50;;;;;;5101289;28;20150;-49
2022/04/26 12:26:14;;;;;;;8.68;2.70;;;13.80;61.90;;;;;;5091041;28;20074;-47
2022/04/26 12:28:51;;;;;;;6.40;2.95;;;13.60;64.30;;;;;;5098646;28;20111;-49
2022/04/26 12:31:25;;;;;;;5.75;2.75;;;13.60;64.20;;;;;;5095143;28;20047;-47
2022/04/26 12:34:12;;;;;;;4.30;2.45;;;13.60;66.00;;;;;;5103650;28;20084;-49
2022/04/26 12:36:53;;;;;;;5.45;2.65;;;13.50;67.40;;;;;;5102921;28;20051;-50
2022/04/26 12:39:23;;;;;;;5.72;2.50;;;13.70;64.40;;;;;;5098059;28;20048;-50
2022/04/26 12:41:51;;;;;;;5.85;2.53;;;13.80;65.20;;;;;;5100562;28;20036;-51
2022/04/26 12:44:17;;;;;;;4.53;2.92;;;14.00;63.90;;;;;;5107020;28;20429;-50
2022/04/26 12:52:42;;;;;;;5.38;2.60;;;14.30;62.00;;;;;;5110078;28;20133;-50
2022/04/26 12:55:07;;;;;;;5.32;2.88;;;14.30;61.30;;;;;;5092895;27;20547;-52
2022/04/26 12:57:50;;;;;;;7.55;2.67;;;14.10;60.60;;;;;;5097178;28;20239;-52
2022/04/26 13:00:16;;;;;;;;;;;13.90;60.20;;;;;;5095448;28;20040;-47
2022/04/26 13:02:41;;;;;;;3.42;2.15;;;13.90;62.50;;;;;;5097681;28;19920;-49
2022/04/26 13:05:07;;;;;;;4.53;2.50;;;14.00;63.90;;;;;;5099745;28;20037;-49
2022/04/26 13:07:33;;;;;;;5.35;2.58;;;14.10;61.40;;;;;;5102392;28;20401;-48
2022/04/26 13:09:58;;;;;;;5.82;2.80;;;14.20;60.20;;;;;;5093931;28;20043;-50
2022/04/26 13:12:24;;;;;;;5.95;2.90;;;14.20;62.00;;;;;;5077464;28;20047;-48
2022/04/26 13:14:50;;;;;;;5.90;2.55;;;14.20;64.10;;;;;;5094995;28;20036;-49
2022/04/26 13:17:20;;;;;;;7.28;2.80;;;14.10;62.90;;;;;;5098336;28;20059;-50
2022/04/26 13:19:46;;;;;;;6.75;3.00;;;14.20;65.10;;;;;;5098287;28;20115;-50
2022/04/26 13:22:12;;;;;;;5.72;2.58;;;14.30;66.30;;;;;;5102710;28;20077;-49
2022/04/26 13:24:38;;;;;;;5.47;2.83;;;14.30;67.10;;;;;;5096946;28;20040;-48
2022/04/26 13:27:03;;;;;;;5.65;2.60;;;14.30;65.10;;;;;;5091873;28;20466;-50
2022/04/26 13:29:29;;;;;;;5.18;2.38;;;14.30;63.30;;;;;;5096483;28;20032;-49
2022/04/26 13:31:54;;;;;;;6.45;2.85;;;14.50;59.40;;;;;;5105455;28;20473;-48
2022/04/26 13:34:20;;;;;;;6.00;2.75;;;14.60;57.70;;;;;;5103870;28;20105;-48
2022/04/26 13:36:46;;;;;;;5.05;2.60;;;14.60;59.00;;;;;;5104115;28;20039;-48
2022/04/26 13:39:12;;;;;;;4.80;2.42;;;14.70;62.30;;;;;;5109657;28;20127;-51
2022/04/26 13:41:37;;;;;;;3.75;2.45;;;14.70;59.90;;;;;;5111796;28;20039;-48
2022/04/26 13:44:03;;;;;;;9.40;2.78;;;14.50;58.60;;;;;;5111364;28;20105;-51
2022/04/26 13:46:28;;;;;;;5.50;2.60;;;14.40;60.30;;;;;;5099614;28;20039;-49
2022/04/26 13:48:54;;;;;;;5.53;2.83;;;14.10;59.50;;;;;;5094576;28;20517;-50
2022/04/26 13:51:21;;;;;;;6.78;2.90;;;14.00;60.10;;;;;;5093822;28;20489;-52
2022/04/26 13:53:47;;;;;;;5.43;2.80;;;13.90;59.40;;;;;;5099484;28;20039;-50
2022/04/26 13:56:12;;;;;;;5.13;2.90;;;13.90;62.20;;;;;;5091222;28;20043;-52
2022/04/26 13:58:38;;;;;;;6.45;2.70;;;13.90;62.60;;;;;;5099052;28;20492;-50
2022/04/26 14:01:03;;;;;;;6.13;2.88;;;14.00;59.20;;;;;;5104071;28;20047;-52
2022/04/26 14:03:29;;;;;;;6.82;3.05;;;14.00;61.10;;;;;;5101030;28;20095;-51
2022/04/26 14:05:56;;;;;;;5.88;2.80;;;13.80;62.30;;;;;;5108633;27;20031;-50
2022/04/26 14:08:22;;;;;;;5.88;2.90;;;13.60;62.30;;;;;;5097233;28;20513;-52
2022/04/26 14:10:47;;;;;;;6.82;2.85;;;13.50;63.00;;;;;;5102403;28;20043;-49
2022/04/26 14:13:13;;;;;;;9.23;2.85;;;13.60;63.60;;;;;;5109488;28;20036;-51
2022/04/26 14:23:51;;;;;;;4.95;2.58;;;14.20;61.80;;;;;;5104839;28;20581;-48
2022/04/26 14:26:17;;;;;;;6.53;2.83;;;14.20;60.70;;;;;;5093111;28;20119;-51
2022/04/26 14:28:44;;;;;;;7.63;2.92;;;14.10;61.20;;;;;;5099198;28;20114;-49
2022/04/26 14:31:09;;;;;;;8.05;2.90;;;14.20;60.60;;;;;;5101208;28;20454;-51
2022/04/26 14:33:35;;;;;;;8.13;3.13;;;14.30;58.60;;;;;;5108661;28;20115;-51
2022/04/26 14:36:01;;;;;;;9.45;3.00;;;14.30;61.20;;;;;;5103423;28;20035;-51
2022/04/26 14:38:27;;;;;;;7.13;2.63;;;14.30;61.10;;;;;;5103437;28;20061;-48
2022/04/26 14:40:53;;;;;;;5.93;2.75;;;14.50;59.70;;;;;;5095403;28;20502;-50
2022/04/26 14:43:20;;;;;;;5.90;2.90;;;14.50;60.80;;;;;;5094171;28;20119;-50
2022/04/26 14:45:45;;;;;;;5.68;2.60;;;14.60;62.60;;;;;;5101922;28;20062;-52
2022/04/26 14:50:39;;;;;;;6.82;2.97;;;14.80;62.10;;;;;;5109367;22;20464;-48
2022/04/26 14:53:04;;;;;;;7.28;3.40;;;14.80;62.80;;;;;;5084639;28;20051;-48
2022/04/26 14:55:30;;;;;;;8.18;3.17;;;14.90;63.40;;;;;;5090944;28;20040;-50
2022/04/26 14:57:56;;;;;;;5.38;3.00;;;14.80;61.60;;;;;;5090496;28;20048;-53
2022/04/26 15:00:21;;;;;;;5.18;2.90;;;14.90;63.10;;;;;;5079386;28;20032;-51
2022/04/26 15:02:47;;;;;;;6.32;2.95;;;14.90;63.00;;;;;;5078169;28;20471;-47
2022/04/26 15:05:13;;;;;;;5.63;2.72;;;15.00;63.10;;;;;;5072940;28;20040;-54
2022/04/26 15:10:24;;;;;;;4.32;2.63;;;15.00;60.70;;;;;;5073816;28;20579;-47
2022/04/26 15:18:20;;;;;;;7.68;2.97;;;14.70;57.10;;;;;;5062865;28;20037;-51
2022/04/26 15:20:48;;;;;;;5.43;2.72;;;14.70;58.30;;;;;;5073157;28;20076;-52
2022/04/26 15:23:15;;;;;;;5.53;2.80;;;14.70;59.90;;;;;;5076452;28;20040;-51
2022/04/26 15:25:41;;;;;;;6.47;3.00;;;14.70;61.10;;;;;;5079959;28;20024;-52
2022/04/26 15:28:09;;;;;;;7.00;3.22;;;14.80;60.30;;;;;;5075851;28;20040;-50
2022/04/26 15:30:45;;;;;;;6.85;3.28;;;14.80;59.50;;;;;;5066381;28;20068;-49
2022/04/26 15:33:10;;;;;;;7.03;3.20;;;14.70;58.20;;;;;;5084462;28;20512;-48
2022/04/26 15:35:38;;;;;;;6.35;3.20;;;14.60;59.30;;;;;;5090955;28;20036;-50
2022/04/26 15:38:05;;;;;;;7.65;3.40;;;14.50;60.00;;;;;;5073181;28;20124;-52
2022/04/26 15:40:31;;;;;;;5.38;3.13;;;14.40;59.90;;;;;;5080316;28;20442;-52
2022/04/26 15:42:56;;;;;;;9.02;4.20;;;14.20;59.20;;;;;;5076364;28;20040;-50
2022/04/26 15:45:22;;;;;;;7.57;3.70;;;14.00;61.60;;;;;;5084879;28;20386;-49
2022/04/26 15:47:47;;;;;;;8.27;3.55;;;13.90;62.20;;;;;;5083039;28;20406;-51
2022/04/26 15:50:13;;;;;;;8.07;3.40;;;14.00;63.50;;;;;;5083813;28;20039;-49
2022/04/26 15:52:40;;;;;;;8.98;3.92;;;14.00;63.10;;;;;;5090184;28;20032;-47
2022/04/26 15:55:06;;;;;;;7.03;3.83;;;14.00;63.10;;;;;;5079345;28;20097;-48
2022/04/26 15:57:33;;;;;;;9.88;3.90;;;14.00;62.80;;;;;;5083034;28;20067;-47
2022/04/26 16:00:00;;;;;;;6.97;3.53;;;13.90;64.00;;;;;;5072783;28;20113;-47
2022/04/26 16:02:26;;;;;;;7.55;3.70;;;13.90;64.20;;;;;;5084362;28;20043;-53
2022/04/26 16:04:51;;;;;;;5.03;3.25;;;13.90;64.10;;;;;;5072394;28;20142;-49
2022/04/26 16:07:18;;;;;;;6.07;3.67;;;13.90;63.80;;;;;;5081205;28;20406;-49
2022/04/26 16:20:41;;;;;;;12.65;4.10;;;13.90;63.60;;;;;;5079253;28;20040;-51
2022/04/26 16:23:07;;;;;;;8.10;3.72;;;13.80;64.00;;;;;;5079825;28;20418;-49
2022/04/26 16:25:33;;;;;;;9.23;4.63;;;13.80;64.30;;;;;;5079561;28;20401;-51
2022/04/26 16:28:03;;;;;;;5.75;3.95;;;13.70;64.70;;;;;;5083493;28;20044;-52
2022/04/26 16:30:30;;;;;;;6.72;3.55;;;13.70;64.20;;;;;;5083863;28;20480;-52
2022/04/26 16:33:01;;;;;;;6.07;3.60;;;13.60;65.60;;;;;;5071952;28;20040;-52
2022/04/26 16:35:27;;;;;;;7.78;3.50;;;13.60;64.40;;;;;;5083165;28;20051;-49
2022/04/26 16:37:53;;;;;;;10.70;3.47;;;13.50;64.40;;;;;;5081009;28;20084;-51
2022/04/26 16:40:19;;;;;;;9.32;3.90;;;13.30;64.90;;;;;;5066087;28;20127;-51
2022/04/26 16:42:45;;;;;;;5.85;3.50;;;13.30;66.00;;;;;;5071213;28;20033;-49
2022/04/26 16:45:13;;;;;;;6.10;3.22;;;13.30;66.70;;;;;;5080363;28;20055;-51
2022/04/26 16:47:39;;;;;;;8.75;3.50;;;13.40;65.60;;;;;;5078706;28;20036;-49
2022/04/26 16:50:06;;;;;;;5.63;3.60;;;13.30;66.80;;;;;;5087327;28;20206;-51
2022/04/26 16:52:32;;;;;;;7.53;3.40;;;13.30;65.90;;;;;;5079871;28;20063;-48
2022/04/26 16:54:58;;;;;;;9.57;3.45;;;13.20;66.20;;;;;;5086201;28;20516;-48
2022/04/26 16:57:26;;;;;;;6.97;3.30;;;13.20;66.40;;;;;;5065704;28;20033;-50
2022/04/26 16:59:52;;;;;;;9.68;3.30;;;13.00;66.30;;;;;;5078182;28;20078;-48
2022/04/26 17:02:18;;;;;;;5.75;3.10;;;12.90;66.70;;;;;;5069308;28;20407;-51
2022/04/26 17:04:44;;;;;;;5.30;3.53;;;12.70;67.40;;;;;;5072542;28;20146;-50
2022/04/26 17:07:10;;;;;;;6.32;3.45;;;12.60;68.00;;;;;;5076708;28;20043;-50
2022/04/26 17:09:37;;;;;;;10.63;3.85;;;12.50;67.90;;;;;;5074449;28;20044;-49
2022/04/26 17:12:02;;;;;;;7.20;3.75;;;12.40;68.50;;;;;;5071919;28;20036;-51
2022/04/26 17:14:35;;;;;;;6.70;3.17;;;12.30;69.20;;;;;;5064630;28;20474;-52